Raiatea — V7VA3 — position and weather

sailwx.info

Track history (hours):
 
Tides and Currents Weather Stations Pressure Air Temp Water Temp Dewpoint Dewpoint Depression Visibility Wind Speed Wind Dir Waves Ship Positions

Raiatea

Last reported at 2016-Feb-07 19:32 UTC. Time now 2016-Feb-09 03:31 UTC.
Position S 17°02' E 117°44'.

Length 292 m; draft 18.3 m.

Type: Cargo ship. MMSI: 538004070.

Date/timePositionNaut miles runAvg speedWind from/ knotsBaromVisibWave heightAir tempDewpointWater temp
2016-Feb-07 19:32S 17°02' E 117°44'3611.9
2016-Feb-07 16:33S 17°36' E 117°53'1211.9
2016-Feb-07 15:31S 17°48' E 117°56'1211.4
2016-Feb-07 14:27S 18°00' E 117°59'143 4.0
2016-Feb-06 02:24S 20°20' E 118°34'0 0.0
2016-Feb-06 01:30S 20°20' E 118°34'0 0.0
2016-Feb-06 00:30S 20°20' E 118°34'0 0.0
2016-Feb-05 23:09S 20°20' E 118°34'0 0.0
2016-Feb-05 22:25S 20°20' E 118°34'3 3.4
2016-Feb-05 21:33S 20°17' E 118°35'8 7.7
2016-Feb-05 20:31S 20°10' E 118°31'6 5.5
2016-Feb-05 19:28S 20°09' E 118°25'0 0.0
2016-Feb-05 18:10S 20°09' E 118°25'0 0.0
2016-Feb-05 17:28S 20°09' E 118°25'0 0.0
2016-Feb-05 15:16S 20°09' E 118°25'0 0.0
2016-Feb-05 14:10S 20°09' E 118°25'0 0.0
2016-Feb-05 13:04S 20°09' E 118°25'0 0.0
2016-Feb-05 12:28S 20°09' E 118°25'0 0.0
2016-Feb-05 11:16S 20°09' E 118°25'0 0.0
2016-Feb-05 10:22S 20°09' E 118°25'0 0.0
2016-Feb-05 09:22S 20°09' E 118°25'0 0.0
2016-Feb-05 08:16S 20°09' E 118°25'0 0.0
2016-Feb-05 07:28S 20°09' E 118°25'0 0.0
2016-Feb-05 05:22S 20°09' E 118°25'0 0.0
2016-Feb-05 04:04S 20°09' E 118°25'0 0.0
2016-Feb-05 03:28S 20°09' E 118°25'0 0.0
2016-Feb-05 02:28S 20°09' E 118°25'0 0.0
2016-Feb-05 00:22S 20°09' E 118°25'0 0.0
2016-Feb-04 22:22S 20°09' E 118°25'0 0.0
2016-Feb-04 18:28S 20°09' E 118°25'0 0.0
2016-Feb-04 16:22S 20°09' E 118°25'0 0.0
2016-Feb-04 15:16S 20°09' E 118°25'0 0.0
2016-Feb-04 11:22S 20°09' E 118°25'0 0.0
2016-Feb-04 10:28S 20°09' E 118°25'0 0.1
2016-Feb-04 09:22S 20°09' E 118°25'0 0.0
2016-Feb-04 08:04S 20°09' E 118°25'0 0.0
2016-Feb-04 07:22S 20°09' E 118°25'0 0.0
2016-Feb-04 05:22S 20°09' E 118°25'0 0.3
2016-Feb-04 04:28S 20°09' E 118°25'0 0.2
2016-Feb-04 03:22S 20°09' E 118°25'0 0.0
2016-Feb-03 22:28S 20°09' E 118°25'0 0.0
2016-Feb-03 21:28S 20°09' E 118°25'0 0.0
2016-Feb-03 20:28S 20°09' E 118°25'0 0.0
2016-Feb-03 11:10S 20°09' E 118°25'0 0.0
2016-Feb-03 10:28S 20°09' E 118°25'1 0.1
2016-Feb-02 23:21S 20°09' E 118°26'6 6.0
2016-Feb-02 22:22S 20°09' E 118°32'18 8.6
2016-Feb-02 20:14S 19°51' E 118°27'912.6
2016-Feb-02 19:31S 19°42' E 118°24'1212.7
2016-Feb-02 18:33S 19°30' E 118°21'  
Track history (hours):
 
Tides and Currents Weather Stations Pressure Air Temp Water Temp Dewpoint Dewpoint Depression Visibility Wind Speed Wind Dir Waves Ship Positions

Raiatea

Last reported at 2016-Feb-07 19:32 UTC. Time now 2016-Feb-09 03:31 UTC.
Position S 17°02' E 117°44'.

Length 292 m; draft 18.3 m.

Type: Cargo ship. MMSI: 538004070.

Date/timePositionNaut miles runAvg speedWind from/ knotsBaromVisibWave heightAir tempDewpointWater temp
2016-Feb-07 19:32S 17°02' E 117°44'3611.9
2016-Feb-07 16:33S 17°36' E 117°53'1211.9
2016-Feb-07 15:31S 17°48' E 117°56'1211.4
2016-Feb-07 14:27S 18°00' E 117°59'143 4.0
2016-Feb-06 02:24S 20°20' E 118°34'0 0.0
2016-Feb-06 01:30S 20°20' E 118°34'0 0.0
2016-Feb-06 00:30S 20°20' E 118°34'0 0.0
2016-Feb-05 23:09S 20°20' E 118°34'0 0.0
2016-Feb-05 22:25S 20°20' E 118°34'3 3.4
2016-Feb-05 21:33S 20°17' E 118°35'8 7.7
2016-Feb-05 20:31S 20°10' E 118°31'6 5.5
2016-Feb-05 19:28S 20°09' E 118°25'0 0.0
2016-Feb-05 18:10S 20°09' E 118°25'0 0.0
2016-Feb-05 17:28S 20°09' E 118°25'0 0.0
2016-Feb-05 15:16S 20°09' E 118°25'0 0.0
2016-Feb-05 14:10S 20°09' E 118°25'0 0.0
2016-Feb-05 13:04S 20°09' E 118°25'0 0.0
2016-Feb-05 12:28S 20°09' E 118°25'0 0.0
2016-Feb-05 11:16S 20°09' E 118°25'0 0.0
2016-Feb-05 10:22S 20°09' E 118°25'0 0.0
2016-Feb-05 09:22S 20°09' E 118°25'0 0.0
2016-Feb-05 08:16S 20°09' E 118°25'0 0.0
2016-Feb-05 07:28S 20°09' E 118°25'0 0.0
2016-Feb-05 05:22S 20°09' E 118°25'0 0.0
2016-Feb-05 04:04S 20°09' E 118°25'0 0.0
2016-Feb-05 03:28S 20°09' E 118°25'0 0.0
2016-Feb-05 02:28S 20°09' E 118°25'0 0.0
2016-Feb-05 00:22S 20°09' E 118°25'0 0.0
2016-Feb-04 22:22S 20°09' E 118°25'0 0.0
2016-Feb-04 18:28S 20°09' E 118°25'0 0.0
2016-Feb-04 16:22S 20°09' E 118°25'0 0.0
2016-Feb-04 15:16S 20°09' E 118°25'0 0.0
2016-Feb-04 11:22S 20°09' E 118°25'0 0.0
2016-Feb-04 10:28S 20°09' E 118°25'0 0.1
2016-Feb-04 09:22S 20°09' E 118°25'0 0.0
2016-Feb-04 08:04S 20°09' E 118°25'0 0.0
2016-Feb-04 07:22S 20°09' E 118°25'0 0.0
2016-Feb-04 05:22S 20°09' E 118°25'0 0.3
2016-Feb-04 04:28S 20°09' E 118°25'0 0.2
2016-Feb-04 03:22S 20°09' E 118°25'0 0.0
2016-Feb-03 22:28S 20°09' E 118°25'0 0.0
2016-Feb-03 21:28S 20°09' E 118°25'0 0.0
2016-Feb-03 20:28S 20°09' E 118°25'0 0.0
2016-Feb-03 11:10S 20°09' E 118°25'0 0.0
2016-Feb-03 10:28S 20°09' E 118°25'1 0.1
2016-Feb-02 23:21S 20°09' E 118°26'6 6.0
2016-Feb-02 22:22S 20°09' E 118°32'18 8.6
2016-Feb-02 20:14S 19°51' E 118°27'912.6
2016-Feb-02 19:31S 19°42' E 118°24'1212.7
2016-Feb-02 18:33S 19°30' E 118°21'  

Dump ship's entire track history